createdAt,value
2018-01-13T00:00:40.821Z,6.80
2018-01-13T00:03:21.383Z,6.90
2018-01-13T00:06:01.748Z,7.00
2018-01-13T00:08:45.057Z,7.00
2018-01-13T00:11:25.124Z,7.00
2018-01-13T00:13:52.716Z,7.00
2018-01-13T00:16:19.576Z,7.00
2018-01-13T00:18:47.255Z,6.80
2018-01-13T00:21:14.308Z,6.80
2018-01-13T00:23:41.331Z,6.70
2018-01-13T00:26:09.021Z,6.60
2018-01-13T00:28:35.924Z,6.60
2018-01-13T00:31:02.892Z,6.70
2018-01-13T00:33:30.567Z,6.30
2018-01-13T00:35:57.419Z,6.30
2018-01-13T00:38:24.271Z,6.20
2018-01-13T00:40:51.203Z,6.40
2018-01-13T00:43:18.863Z,6.10
2018-01-13T00:45:46.471Z,6.10
2018-01-13T00:48:13.439Z,6.10
2018-01-13T00:50:40.338Z,6.30
2018-01-13T00:53:07.268Z,6.20
2018-01-13T00:55:34.187Z,6.00
2018-01-13T00:58:01.049Z,6.00
2018-01-13T01:00:28.020Z,6.10
2018-01-13T01:02:54.984Z,6.10
2018-01-13T01:05:21.845Z,5.90
2018-01-13T01:07:48.782Z,5.80
2018-01-13T01:10:15.634Z,5.80
2018-01-13T01:12:42.571Z,6.10
2018-01-13T01:15:09.518Z,6.00
2018-01-13T01:17:36.439Z,5.90
2018-01-13T01:20:03.303Z,5.80
2018-01-13T01:22:30.195Z,5.80
2018-01-13T01:24:57.860Z,5.70
2018-01-13T01:27:25.442Z,5.90
2018-01-13T01:29:52.368Z,5.90
2018-01-13T01:32:19.971Z,6.10
2018-01-13T01:34:46.896Z,6.10
2018-01-13T01:37:13.751Z,6.00
2018-01-13T01:39:40.748Z,6.10
2018-01-13T01:42:07.610Z,6.20
2018-01-13T01:44:35.214Z,6.10
2018-01-13T01:47:02.155Z,6.10
2018-01-13T01:49:29.103Z,5.90
2018-01-13T01:51:56.012Z,6.10
2018-01-13T01:54:23.693Z,6.00
2018-01-13T01:56:50.871Z,6.00
2018-01-13T01:59:17.811Z,6.00
2018-01-13T02:01:44.675Z,6.10
2018-01-13T02:04:11.583Z,6.10
2018-01-13T02:06:38.455Z,6.20
2018-01-13T02:09:05.366Z,6.10
2018-01-13T02:11:32.288Z,6.00
2018-01-13T02:13:59.911Z,5.90
2018-01-13T02:16:26.781Z,5.90
2018-01-13T02:18:53.707Z,5.80
2018-01-13T02:21:20.588Z,5.70
2018-01-13T02:23:47.439Z,5.80
2018-01-13T02:26:15.099Z,5.90
2018-01-13T02:28:42.709Z,5.90
2018-01-13T02:31:09.623Z,5.90
2018-01-13T02:33:36.544Z,5.80
2018-01-13T02:36:03.458Z,5.70
2018-01-13T02:38:30.405Z,5.70
2018-01-13T02:40:57.263Z,5.60
2018-01-13T02:43:24.121Z,5.40
2018-01-13T02:45:51.046Z,5.50
2018-01-13T02:48:17.915Z,5.40
2018-01-13T02:50:44.887Z,5.70
2018-01-13T02:53:11.828Z,5.60
2018-01-13T02:55:39.439Z,5.60
2018-01-13T02:58:06.299Z,5.50
2018-01-13T03:00:33.256Z,5.30
2018-01-13T03:03:00.175Z,5.40
2018-01-13T03:05:27.043Z,5.60
2018-01-13T03:07:53.995Z,5.60
2018-01-13T03:10:20.872Z,5.70
2018-01-13T03:12:47.742Z,5.20
2018-01-13T03:15:14.676Z,4.90
2018-01-13T03:17:41.526Z,4.80
2018-01-13T03:20:08.408Z,5.10
2018-01-13T03:22:35.335Z,5.10
2018-01-13T03:25:02.223Z,5.30
2018-01-13T03:27:29.903Z,5.50
2018-01-13T03:29:56.758Z,5.50
2018-01-13T03:32:23.689Z,5.70
2018-01-13T03:34:51.285Z,5.80
2018-01-13T03:37:18.123Z,5.80
2018-01-13T03:39:45.127Z,5.90
2018-01-13T03:42:12.723Z,6.10
2018-01-13T03:44:39.671Z,6.10
2018-01-13T03:47:06.598Z,6.10
2018-01-13T03:49:33.478Z,6.20
2018-01-13T03:52:00.399Z,6.20
2018-01-13T03:54:27.335Z,6.30
2018-01-13T03:56:54.256Z,6.20
2018-01-13T03:59:21.909Z,6.30
2018-01-13T04:01:48.772Z,6.30
2018-01-13T04:04:16.446Z,6.20
2018-01-13T04:06:44.054Z,5.90
2018-01-13T04:09:11.008Z,5.90
2018-01-13T04:11:37.953Z,6.00
2018-01-13T04:14:04.807Z,6.00
2018-01-13T04:16:31.742Z,5.60
2018-01-13T04:18:58.600Z,5.60
2018-01-13T04:21:25.533Z,5.60
2018-01-13T04:23:52.391Z,5.50
2018-01-13T04:26:19.327Z,5.60
2018-01-13T04:28:46.252Z,5.70
2018-01-13T04:31:13.101Z,5.70
2018-01-13T04:33:40.023Z,5.70
2018-01-13T04:36:06.939Z,5.80
2018-01-13T04:38:33.782Z,5.70
2018-01-13T04:41:00.691Z,5.70
2018-01-13T04:43:27.550Z,5.70
2018-01-13T04:45:54.539Z,5.60
2018-01-13T04:48:21.466Z,5.80
2018-01-13T04:50:49.071Z,5.70
2018-01-13T04:53:16.046Z,5.70
2018-01-13T04:55:43.083Z,5.90
2018-01-13T04:58:09.956Z,6.00
2018-01-13T05:00:36.882Z,6.20
2018-01-13T05:03:03.722Z,6.20
2018-01-13T05:05:30.646Z,6.10
2018-01-13T05:07:57.574Z,6.20
2018-01-13T05:10:24.524Z,6.20
2018-01-13T05:12:51.379Z,6.10
2018-01-13T05:15:18.257Z,6.00
2018-01-13T05:17:45.175Z,6.10
2018-01-13T05:20:12.035Z,6.20
2018-01-13T05:22:38.982Z,5.90
2018-01-13T05:25:05.915Z,5.80
2018-01-13T05:30:16.458Z,5.80
2018-01-13T05:32:44.066Z,5.80
2018-01-13T05:35:10.923Z,5.80
2018-01-13T05:37:37.855Z,5.80
2018-01-13T05:40:04.704Z,5.60
2018-01-13T05:42:31.623Z,5.60
2018-01-13T05:44:58.488Z,5.90
2018-01-13T05:47:26.755Z,5.80
2018-01-13T05:49:53.686Z,6.10
2018-01-13T05:52:20.535Z,6.20
2018-01-13T05:54:47.563Z,6.30
2018-01-13T05:57:15.166Z,6.40
2018-01-13T05:59:42.073Z,6.40
2018-01-13T06:02:09.671Z,6.20
2018-01-13T06:04:36.583Z,6.20
2018-01-13T06:07:03.434Z,6.20
2018-01-13T06:09:30.400Z,6.30
2018-01-13T06:11:57.350Z,6.40
2018-01-13T06:14:24.272Z,6.40
2018-01-13T06:16:51.116Z,6.40
2018-01-13T06:19:18.037Z,6.00
2018-01-13T06:21:45.632Z,6.30
2018-01-13T06:24:12.599Z,6.30
2018-01-13T06:26:39.452Z,6.50
2018-01-13T06:29:06.379Z,6.50
2018-01-13T06:31:33.228Z,6.60
2018-01-13T06:34:00.160Z,6.40
2018-01-13T06:36:27.010Z,6.40
2018-01-13T06:38:53.877Z,6.40
2018-01-13T06:41:20.808Z,6.40
2018-01-13T06:43:47.727Z,6.40
2018-01-13T06:46:14.726Z,6.40
2018-01-13T06:48:41.623Z,6.40
2018-01-13T06:51:08.553Z,6.30
2018-01-13T06:53:36.148Z,6.30
2018-01-13T06:56:03.064Z,6.30
2018-01-13T06:58:30.772Z,6.20
2018-01-13T07:00:57.738Z,6.20
2018-01-13T07:03:24.574Z,6.30
2018-01-13T07:05:51.431Z,6.10
2018-01-13T07:08:18.354Z,6.20
2018-01-13T07:10:45.194Z,6.20
2018-01-13T07:13:12.044Z,6.20
2018-01-13T07:15:38.956Z,6.20
2018-01-13T07:18:05.809Z,6.20
2018-01-13T07:20:32.733Z,6.20
2018-01-13T07:23:00.375Z,6.30
2018-01-13T07:25:27.514Z,6.30
2018-01-13T07:27:54.723Z,6.30
2018-01-13T07:30:21.591Z,6.10
2018-01-13T07:32:57.970Z,6.00
2018-01-13T07:35:27.383Z,6.00
2018-01-13T07:37:54.314Z,6.00
2018-01-13T07:40:21.169Z,6.10
2018-01-13T07:42:48.101Z,6.10
2018-01-13T07:45:15.147Z,6.10
2018-01-13T07:47:42.111Z,6.20
2018-01-13T07:52:52.855Z,6.40
2018-01-13T07:55:19.888Z,6.40
2018-01-13T07:57:47.534Z,6.10
2018-01-13T08:00:14.483Z,6.10
2018-01-13T08:02:42.324Z,6.20
2018-01-13T08:05:09.894Z,6.20
2018-01-13T08:07:36.821Z,6.20
2018-01-13T08:10:05.390Z,6.20
2018-01-13T08:12:37.091Z,6.10
2018-01-13T08:15:04.045Z,6.20
2018-01-13T08:17:31.638Z,6.10
2018-01-13T08:20:01.573Z,6.10
2018-01-13T08:22:28.452Z,6.10
2018-01-13T08:24:56.359Z,6.10
2018-01-13T08:27:23.226Z,6.10
2018-01-13T08:29:50.251Z,6.00
2018-01-13T08:32:17.095Z,5.80
2018-01-13T08:34:43.942Z,5.80
2018-01-13T08:37:10.858Z,6.00
2018-01-13T08:39:37.712Z,6.00
2018-01-13T08:42:05.401Z,6.10
2018-01-13T08:44:32.267Z,6.00
2018-01-13T08:46:59.190Z,6.10
2018-01-13T08:49:26.072Z,5.90
2018-01-13T08:51:52.923Z,6.00
2018-01-13T08:54:19.848Z,5.90
2018-01-13T08:56:46.779Z,5.80
2018-01-13T08:59:13.702Z,5.80
2018-01-13T09:01:55.629Z,5.70
2018-01-13T09:04:22.540Z,6.00
2018-01-13T09:06:50.138Z,6.10
2018-01-13T09:09:17.063Z,6.10
2018-01-13T09:11:43.989Z,6.10
2018-01-13T09:14:11.642Z,6.40
2018-01-13T09:16:38.502Z,6.40
2018-01-13T09:19:06.169Z,6.70
2018-01-13T09:21:33.070Z,6.70
2018-01-13T09:23:59.999Z,6.80
2018-01-13T09:26:26.851Z,6.80
2018-01-13T09:28:53.766Z,6.70
2018-01-13T09:31:20.628Z,6.80
2018-01-13T09:33:47.478Z,6.70
2018-01-13T09:36:14.404Z,6.50
2018-01-13T09:38:41.252Z,6.60
2018-01-13T09:41:08.100Z,6.40
2018-01-13T09:43:35.050Z,6.50
2018-01-13T09:46:01.929Z,6.40
2018-01-13T09:48:28.862Z,6.60
2018-01-13T09:50:55.795Z,6.50
2018-01-13T09:53:22.702Z,6.40
2018-01-13T09:55:49.732Z,6.30
2018-01-13T09:58:17.335Z,6.10
2018-01-13T10:00:44.310Z,6.10
2018-01-13T10:03:11.174Z,6.00
2018-01-13T10:05:38.095Z,6.30
2018-01-13T10:08:04.967Z,6.40
2018-01-13T10:10:31.887Z,6.40
2018-01-13T10:12:58.830Z,6.50
2018-01-13T10:15:25.689Z,6.70
2018-01-13T10:17:52.620Z,7.00
2018-01-13T10:20:19.470Z,7.20
2018-01-13T10:22:46.347Z,7.60
2018-01-13T10:25:14.006Z,7.70
2018-01-13T10:27:40.942Z,7.70
2018-01-13T10:30:07.866Z,7.90
2018-01-13T10:32:34.733Z,8.20
2018-01-13T10:35:01.590Z,8.30
2018-01-13T10:37:28.533Z,8.50
2018-01-13T10:39:55.486Z,7.40
2018-01-13T10:42:23.170Z,8.00
2018-01-13T10:44:50.035Z,8.00
2018-01-13T10:47:16.963Z,8.10
2018-01-13T10:49:43.812Z,7.80
2018-01-13T10:52:10.723Z,7.90
2018-01-13T10:54:37.636Z,7.50
2018-01-13T10:57:04.581Z,7.40
2018-01-13T10:59:31.424Z,7.80
2018-01-13T11:01:58.374Z,7.80
2018-01-13T11:04:25.217Z,7.90
2018-01-13T11:06:52.080Z,8.00
2018-01-13T11:09:19.011Z,7.50
2018-01-13T11:11:45.874Z,7.70
2018-01-13T11:14:12.805Z,7.60
2018-01-13T11:16:39.746Z,7.00
2018-01-13T11:19:06.663Z,7.40
2018-01-13T11:21:33.533Z,7.70
2018-01-13T11:24:00.444Z,7.50
2018-01-13T11:26:27.387Z,7.30
2018-01-13T11:28:54.317Z,7.40
2018-01-13T11:31:21.896Z,7.20
2018-01-13T11:33:48.797Z,7.30
2018-01-13T11:36:15.703Z,7.50
2018-01-13T11:38:42.639Z,7.20
2018-01-13T11:41:09.487Z,7.00
2018-01-13T11:43:36.407Z,7.00
2018-01-13T11:46:04.070Z,7.30
2018-01-13T11:48:31.648Z,7.30
2018-01-13T11:50:58.643Z,7.20
2018-01-13T11:53:25.571Z,7.30
2018-01-13T11:55:52.438Z,7.20
2018-01-13T11:58:19.362Z,7.30
2018-01-13T12:00:46.234Z,7.30
2018-01-13T12:03:13.211Z,7.20
2018-01-13T12:05:40.077Z,7.20
2018-01-13T12:08:06.902Z,7.30
2018-01-13T12:10:33.817Z,7.40
2018-01-13T12:13:00.707Z,7.40
2018-01-13T12:15:27.635Z,7.40
2018-01-13T12:17:55.280Z,7.60
2018-01-13T12:20:22.217Z,7.60
2018-01-13T12:22:49.147Z,7.60
2018-01-13T12:25:28.178Z,7.80
2018-01-13T12:27:56.718Z,7.60
2018-01-13T12:30:23.696Z,7.70
2018-01-13T12:32:50.567Z,7.60
2018-01-13T12:35:17.483Z,7.70
2018-01-13T12:37:44.335Z,7.60
2018-01-13T12:40:11.261Z,7.70
2018-01-13T12:42:38.121Z,7.70
2018-01-13T12:45:05.099Z,7.70
2018-01-13T12:47:31.961Z,7.70
2018-01-13T12:49:59.630Z,7.70
2018-01-13T12:52:26.530Z,7.70
2018-01-13T12:54:53.465Z,7.50
2018-01-13T12:57:20.427Z,7.50
2018-01-13T12:59:47.292Z,7.50
2018-01-13T13:02:14.227Z,7.40
2018-01-13T13:04:41.088Z,7.20
2018-01-13T13:07:08.671Z,7.30
2018-01-13T13:09:35.706Z,7.30
2018-01-13T13:12:03.308Z,7.10
2018-01-13T13:14:30.158Z,7.10
2018-01-13T13:16:57.097Z,7.00
2018-01-13T13:19:23.998Z,6.90
2018-01-13T13:21:50.979Z,6.80
2018-01-13T13:24:17.845Z,7.00
2018-01-13T13:26:44.774Z,7.00
2018-01-13T13:29:11.635Z,6.90
2018-01-13T13:31:38.511Z,7.10
2018-01-13T13:34:05.422Z,7.00
2018-01-13T13:36:32.407Z,6.90
2018-01-13T13:38:59.351Z,6.80
2018-01-13T13:41:26.271Z,6.90
2018-01-13T13:43:53.114Z,6.90
2018-01-13T13:46:20.047Z,7.10
2018-01-13T13:48:46.960Z,7.00
2018-01-13T13:51:13.907Z,7.00
2018-01-13T13:53:40.753Z,7.20
2018-01-13T13:56:07.651Z,7.10
2018-01-13T13:58:34.561Z,7.10
2018-01-13T14:01:22.150Z,7.10
2018-01-13T14:03:28.486Z,7.30
2018-01-13T14:05:55.323Z,7.10
2018-01-13T14:08:22.267Z,6.80
2018-01-13T14:10:49.180Z,7.00
2018-01-13T14:13:16.067Z,7.00
2018-01-13T14:15:43.042Z,7.00
2018-01-13T14:18:10.696Z,6.90
2018-01-13T14:20:37.600Z,6.90
2018-01-13T14:23:04.527Z,7.00
2018-01-13T14:25:31.384Z,6.90
2018-01-13T14:27:58.308Z,6.90
2018-01-13T14:30:25.175Z,6.90
2018-01-13T14:32:52.617Z,6.80
2018-01-13T14:35:19.471Z,6.80
2018-01-13T14:37:46.443Z,6.90
2018-01-13T14:40:13.291Z,7.00
2018-01-13T14:42:40.177Z,6.90
2018-01-13T14:45:07.864Z,6.90
2018-01-13T14:47:34.733Z,6.90
2018-01-13T14:50:02.264Z,6.90
2018-01-13T14:52:29.220Z,6.70
2018-01-13T14:54:56.085Z,6.60
2018-01-13T14:57:23.071Z,6.50
2018-01-13T14:59:50.671Z,6.50
2018-01-13T15:02:17.691Z,6.50
2018-01-13T15:04:45.381Z,6.50
2018-01-13T15:07:12.301Z,6.50
2018-01-13T15:09:39.985Z,6.40
2018-01-13T15:12:06.891Z,6.40
2018-01-13T15:14:33.836Z,6.50
2018-01-13T15:17:00.724Z,6.50
2018-01-13T15:19:27.703Z,6.40
2018-01-13T15:21:54.623Z,6.50
2018-01-13T15:24:21.503Z,6.50
2018-01-13T15:26:48.438Z,6.40
2018-01-13T15:29:15.383Z,6.60
2018-01-13T15:31:42.242Z,6.40
2018-01-13T15:34:09.208Z,6.50
2018-01-13T15:36:36.799Z,6.30
2018-01-13T15:39:03.839Z,6.30
2018-01-13T15:41:30.759Z,6.50
2018-01-13T15:43:57.642Z,6.40
2018-01-13T15:46:24.576Z,6.40
2018-01-13T15:48:51.449Z,6.40
2018-01-13T15:51:18.377Z,6.40
2018-01-13T15:53:45.241Z,6.40
2018-01-13T15:56:12.154Z,6.50
2018-01-13T15:58:39.043Z,6.30
2018-01-13T16:01:05.975Z,6.30
2018-01-13T16:03:32.962Z,6.30
2018-01-13T16:05:59.810Z,6.00
2018-01-13T16:08:26.676Z,6.00
2018-01-13T16:10:54.360Z,6.00
2018-01-13T16:13:21.201Z,6.00
2018-01-13T16:15:48.094Z,5.90
2018-01-13T16:18:15.107Z,6.00
2018-01-13T16:20:42.108Z,6.00
2018-01-13T16:23:08.995Z,6.10
2018-01-13T16:25:35.850Z,6.10
2018-01-13T16:28:02.795Z,6.10
2018-01-13T16:30:29.686Z,6.20
2018-01-13T16:32:56.612Z,6.10
2018-01-13T16:35:23.584Z,6.00
2018-01-13T16:37:51.251Z,6.00
2018-01-13T16:40:18.878Z,6.20
2018-01-13T16:42:45.751Z,6.20
2018-01-13T16:45:12.805Z,6.10
2018-01-13T16:47:40.404Z,5.90
2018-01-13T16:50:07.277Z,5.90
2018-01-13T16:52:34.202Z,6.10
2018-01-13T16:55:01.076Z,6.10
2018-01-13T16:57:28.067Z,6.10
2018-01-13T16:59:55.582Z,6.10
2018-01-13T17:02:22.563Z,6.20
2018-01-13T17:04:50.184Z,6.20
2018-01-13T17:07:17.099Z,6.20
2018-01-13T17:09:43.964Z,6.30
2018-01-13T17:12:12.331Z,6.00
2018-01-13T17:14:39.271Z,6.10
2018-01-13T17:17:06.215Z,6.10
2018-01-13T17:19:33.151Z,6.10
2018-01-13T17:22:00.031Z,6.10
2018-01-13T17:24:26.965Z,6.10
2018-01-13T17:26:53.829Z,6.00
2018-01-13T17:29:20.722Z,6.00
2018-01-13T17:31:47.647Z,6.10
2018-01-13T17:34:15.233Z,6.10
2018-01-13T17:36:42.166Z,6.10
2018-01-13T17:39:09.847Z,6.00
2018-01-13T17:41:36.696Z,6.00
2018-01-13T17:44:03.566Z,6.00
2018-01-13T17:46:30.499Z,6.00
2018-01-13T17:48:57.384Z,5.90
2018-01-13T17:51:24.376Z,5.90
2018-01-13T17:53:51.228Z,5.90
2018-01-13T17:56:18.147Z,5.80
2018-01-13T17:58:45.921Z,5.80
2018-01-13T18:01:12.852Z,5.80
2018-01-13T18:03:40.500Z,5.80
2018-01-13T18:06:07.450Z,5.80
2018-01-13T18:08:34.308Z,5.80
2018-01-13T18:11:01.926Z,5.70
2018-01-13T18:13:28.875Z,5.60
2018-01-13T18:15:55.745Z,5.70
2018-01-13T18:18:22.774Z,5.80
2018-01-13T18:20:49.721Z,5.80
2018-01-13T18:23:16.600Z,5.80
2018-01-13T18:25:44.288Z,5.80
2018-01-13T18:28:11.168Z,5.80
2018-01-13T18:30:38.074Z,6.00
2018-01-13T18:33:05.063Z,5.90
2018-01-13T18:35:31.936Z,5.90
2018-01-13T18:37:58.864Z,5.80
2018-01-13T18:40:25.864Z,5.80
2018-01-13T18:42:52.752Z,5.90
2018-01-13T18:45:19.619Z,5.90
2018-01-13T18:47:46.557Z,5.70
2018-01-13T18:50:13.427Z,5.80
2018-01-13T18:52:41.798Z,5.70
2018-01-13T18:55:09.479Z,5.60
2018-01-13T18:57:36.430Z,5.60
2018-01-13T19:00:03.471Z,5.60
2018-01-13T19:02:30.338Z,5.60
2018-01-13T19:04:57.270Z,5.60
2018-01-13T19:07:24.198Z,5.70
2018-01-13T19:09:51.871Z,5.60
2018-01-13T19:12:19.555Z,5.60
2018-01-13T19:14:46.399Z,5.60
2018-01-13T19:17:13.330Z,5.70
2018-01-13T19:19:40.241Z,5.70
2018-01-13T19:22:07.194Z,5.60
2018-01-13T19:24:34.855Z,5.50
2018-01-13T19:27:02.545Z,5.40
2018-01-13T19:29:29.423Z,5.40
2018-01-13T19:31:56.435Z,5.40
2018-01-13T19:34:23.353Z,5.50
2018-01-13T19:36:50.276Z,5.60
2018-01-13T19:39:17.147Z,5.50
2018-01-13T19:41:44.120Z,5.40
2018-01-13T19:44:10.978Z,5.30
2018-01-13T19:46:37.897Z,5.50
2018-01-13T19:49:05.495Z,5.60
2018-01-13T19:51:32.363Z,5.60
2018-01-13T19:54:08.244Z,5.60
2018-01-13T19:56:49.116Z,5.80
2018-01-13T19:59:16.782Z,5.70
2018-01-13T20:01:43.634Z,5.70
2018-01-13T20:04:11.386Z,5.70
2018-01-13T20:06:38.260Z,5.70
2018-01-13T20:09:05.857Z,5.50
2018-01-13T20:11:35.184Z,5.50
2018-01-13T20:14:02.068Z,5.40
2018-01-13T20:16:29.746Z,5.40
2018-01-13T20:18:56.657Z,5.40
2018-01-13T20:21:24.006Z,5.30
2018-01-13T20:24:03.234Z,5.30
2018-01-13T20:26:41.293Z,5.30
2018-01-13T20:29:08.558Z,5.20
2018-01-13T20:31:46.341Z,5.10
2018-01-13T20:34:23.869Z,5.30
2018-01-13T20:37:03.871Z,5.10
2018-01-13T20:39:44.206Z,5.10
2018-01-13T20:42:13.269Z,5.10
2018-01-13T20:44:50.360Z,5.00
2018-01-13T20:47:24.090Z,5.00
2018-01-13T20:49:59.515Z,5.00
2018-01-13T20:52:37.244Z,5.10
2018-01-13T20:55:15.291Z,5.10
2018-01-13T20:57:52.118Z,5.10
2018-01-13T21:00:20.271Z,5.00
2018-01-13T21:02:59.429Z,4.80
2018-01-13T21:05:38.179Z,4.70
2018-01-13T21:08:07.554Z,4.70
2018-01-13T21:10:42.784Z,4.80
2018-01-13T21:13:17.906Z,4.80
2018-01-13T21:15:48.403Z,4.70
2018-01-13T21:18:16.277Z,4.90
2018-01-13T21:20:44.045Z,4.90
2018-01-13T21:23:12.075Z,4.80
2018-01-13T21:25:39.735Z,4.90
2018-01-13T21:28:07.728Z,4.80
2018-01-13T21:30:36.011Z,5.00
2018-01-13T21:33:03.681Z,4.90
2018-01-13T21:35:31.336Z,4.90
2018-01-13T21:37:58.520Z,5.00
2018-01-13T21:40:37.267Z,5.10
2018-01-13T21:43:10.394Z,5.30
2018-01-13T21:45:50.943Z,5.10
2018-01-13T21:48:26.844Z,5.10
2018-01-13T21:51:04.181Z,5.10
2018-01-13T21:53:43.629Z,4.90
2018-01-13T21:56:21.544Z,5.00
2018-01-13T21:59:00.793Z,4.90
2018-01-13T22:01:39.237Z,4.70
2018-01-13T22:04:11.334Z,4.70
2018-01-13T22:06:48.929Z,4.50
2018-01-13T22:09:23.729Z,4.60
2018-01-13T22:11:55.942Z,4.50
2018-01-13T22:14:29.372Z,4.50
2018-01-13T22:17:02.009Z,4.60
2018-01-13T22:19:40.582Z,4.40
2018-01-13T22:22:19.455Z,4.50
2018-01-13T22:24:57.742Z,4.30
2018-01-13T22:27:35.130Z,4.30
2018-01-13T22:30:15.134Z,4.50
2018-01-13T22:32:51.389Z,4.50
2018-01-13T22:35:31.847Z,4.50
2018-01-13T22:38:09.243Z,4.50
2018-01-13T22:40:47.056Z,4.50
2018-01-13T22:43:20.745Z,4.40
2018-01-13T22:45:57.223Z,4.50
2018-01-13T22:48:38.862Z,4.70
2018-01-13T22:51:17.614Z,4.70
2018-01-13T22:53:54.855Z,4.40
2018-01-13T22:56:34.510Z,4.40
2018-01-13T22:59:12.708Z,4.40
2018-01-13T23:01:47.652Z,4.40
2018-01-13T23:04:17.382Z,4.40
2018-01-13T23:06:47.056Z,4.30
2018-01-13T23:09:16.892Z,4.50
2018-01-13T23:11:45.112Z,4.60
2018-01-13T23:14:12.148Z,4.40
2018-01-13T23:16:39.081Z,4.40
2018-01-13T23:19:06.003Z,4.40
2018-01-13T23:21:32.929Z,4.30
2018-01-13T23:24:00.530Z,4.40
2018-01-13T23:26:27.452Z,4.40
2018-01-13T23:28:54.310Z,4.40
2018-01-13T23:31:21.224Z,4.50
2018-01-13T23:33:48.902Z,4.50
2018-01-13T23:36:15.750Z,4.50
2018-01-13T23:38:42.783Z,4.30
2018-01-13T23:41:10.394Z,4.20
2018-01-13T23:43:37.248Z,4.10
2018-01-13T23:46:04.152Z,4.20
2018-01-13T23:48:31.011Z,4.20
2018-01-13T23:50:57.943Z,4.30
2018-01-13T23:53:24.795Z,4.40
2018-01-13T23:55:51.703Z,4.30
2018-01-13T23:58:18.543Z,4.30
